Shoei Maru No.55 — JL6485 — position and weather

sailwx.info

Track history (hours):
 
Tides and Currents Weather Stations Pressure Air Temp Water Temp Dewpoint Dewpoint Depression Visibility Wind Speed Wind Dir Waves Ship Positions

Shoei Maru No.55

Last reported at 2017-Sep-21 08:59 UTC. Time now 2017-Sep-22 00:42 UTC.
Position N 34°56' E 139°23'.

Length 72 m; draft 4.5 m.

Type: Cargo ship. MMSI: 431500583.

Date/timePositionNaut miles runAvg speedWind from/ knotsBaromVisibWave heightAir tempDewpointWater temp
2017-Sep-21 08:59N 34°56' E 139°23'5 8.7
2017-Sep-21 08:23N 34°59' E 139°28'410.4
2017-Sep-21 08:00N 35°01' E 139°32'510.9
2017-Sep-21 07:30N 35°05' E 139°38'510.9
2017-Sep-21 07:01N 35°08' E 139°43'510.7
2017-Sep-21 06:31N 35°13' E 139°46'5 9.6
2017-Sep-21 06:00N 35°17' E 139°45'5 9.9
2017-Sep-21 05:30N 35°22' E 139°42'510.2
2017-Sep-21 05:01N 35°27' E 139°43'3 5.3
2017-Sep-21 04:29N 35°30' E 139°43'0 0.0
2017-Sep-21 03:59N 35°30' E 139°43'0 0.0
2017-Sep-21 03:29N 35°30' E 139°43'0 0.0
2017-Sep-21 02:59N 35°30' E 139°43'0 0.0
2017-Sep-21 02:29N 35°30' E 139°43'0 0.0
2017-Sep-21 01:59N 35°30' E 139°43'0 0.0
2017-Sep-21 01:29N 35°30' E 139°43'0 0.0
2017-Sep-21 00:59N 35°30' E 139°43'0 0.0
2017-Sep-21 00:29N 35°30' E 139°43'0 0.0
2017-Sep-20 23:59N 35°30' E 139°43'0 0.0
2017-Sep-20 23:29N 35°30' E 139°43'0 0.1
2017-Sep-20 23:01N 35°30' E 139°43'4 8.6
2017-Sep-20 22:31N 35°30' E 139°48'2 2.7
2017-Sep-20 21:56N 35°31' E 139°50'0 0.0
2017-Sep-20 21:26N 35°31' E 139°50'0 0.0
2017-Sep-20 20:59N 35°31' E 139°50'0 0.0
2017-Sep-20 20:29N 35°31' E 139°50'0 0.1
2017-Sep-20 19:56N 35°31' E 139°50'0 0.0
2017-Sep-20 19:29N 35°31' E 139°50'0 0.0
2017-Sep-20 18:53N 35°31' E 139°50'0 0.1
2017-Sep-20 18:23N 35°31' E 139°50'0 0.0
2017-Sep-20 17:59N 35°31' E 139°50'0 0.0
2017-Sep-20 17:26N 35°31' E 139°50'0 0.1
2017-Sep-20 16:59N 35°31' E 139°50'0 0.0
2017-Sep-20 16:29N 35°31' E 139°50'0 0.0
2017-Sep-20 15:59N 35°31' E 139°50'0 0.0
2017-Sep-20 15:30N 35°31' E 139°50'0 0.0
2017-Sep-20 14:58N 35°31' E 139°50'0 0.0
2017-Sep-20 14:00N 35°31' E 139°50'0 0.0
2017-Sep-20 13:30N 35°31' E 139°50'0 0.0
2017-Sep-20 13:00N 35°31' E 139°50'0 0.0
2017-Sep-20 12:30N 35°31' E 139°50'0 0.0
2017-Sep-20 12:01N 35°31' E 139°50'0 0.0
2017-Sep-20 11:30N 35°31' E 139°50'0 0.0
2017-Sep-20 11:00N 35°31' E 139°50'0 0.0
2017-Sep-20 10:30N 35°31' E 139°50'0 0.0
2017-Sep-20 10:00N 35°31' E 139°50'0 0.0
2017-Sep-20 09:30N 35°31' E 139°50'0 0.0
2017-Sep-20 09:01N 35°31' E 139°50'0 0.1
2017-Sep-20 08:30N 35°31' E 139°50'0 0.0
2017-Sep-20 07:57N 35°31' E 139°50'0 0.0
2017-Sep-20 07:30N 35°31' E 139°50'0 0.0
2017-Sep-20 07:00N 35°31' E 139°50'0 0.0
2017-Sep-20 06:30N 35°31' E 139°50'0 0.0
2017-Sep-20 06:00N 35°31' E 139°50'0 0.0
2017-Sep-20 05:30N 35°31' E 139°50'3 5.6
2017-Sep-20 05:01N 35°33' E 139°49'3 5.3
2017-Sep-20 04:28N 35°35' E 139°46'0 0.0
2017-Sep-20 03:46N 35°35' E 139°46'0 0.0
2017-Sep-20 03:16N 35°35' E 139°46'0 0.0
2017-Sep-20 02:58N 35°35' E 139°46'0 0.0
2017-Sep-20 02:28N 35°35' E 139°46'0 0.0
2017-Sep-20 01:58N 35°35' E 139°46'0 0.0
2017-Sep-20 01:28N 35°35' E 139°46'0 0.0
2017-Sep-20 00:58N 35°35' E 139°46'0 0.0
2017-Sep-20 00:22N 35°35' E 139°46'0 0.0
2017-Sep-19 23:58N 35°35' E 139°46'0 0.0
2017-Sep-19 23:28N 35°35' E 139°46'0 0.0
2017-Sep-19 22:55N 35°35' E 139°46'0 0.1
2017-Sep-19 22:27N 35°35' E 139°46'4 8.2
2017-Sep-19 22:00N 35°33' E 139°50'5 9.8
2017-Sep-19 21:30N 35°28' E 139°48'510.2
2017-Sep-19 21:00N 35°23' E 139°46'5 9.8
2017-Sep-19 20:30N 35°19' E 139°44'510.5
2017-Sep-19 20:00N 35°14' E 139°47'611.0
2017-Sep-19 19:30N 35°09' E 139°45'611.5
2017-Sep-19 19:00N 35°04' E 139°41'611.9
2017-Sep-19 18:30N 35°00' E 139°35'712.6
2017-Sep-19 17:58N 34°57' E 139°28'  
2017-Sep-16 08:57N 34°09' E 134°57'511.3
2017-Sep-16 08:30N 34°13' E 135°00'1211.1
2017-Sep-16 07:27N 34°23' E 135°08'511.4
2017-Sep-16 07:00N 34°27' E 135°12'611.6
2017-Sep-16 06:30N 34°29' E 135°18'2 0.5
2017-Sep-16 02:07N 34°28' E 135°21'3 8.6
2017-Sep-16 01:47N 34°28' E 135°17'310.2
2017-Sep-16 01:29N 34°28' E 135°14'5 9.8
2017-Sep-16 01:00N 34°25' E 135°10'10 9.5
2017-Sep-15 23:54N 34°16' E 135°03'410.6
2017-Sep-15 23:30N 34°12' E 135°03'611.0
2017-Sep-15 22:59N 34°06' E 135°02'222 8.6
2017-Sep-14 21:16N 34°57' E 139°25'4 9.7
2017-Sep-14 20:54N 34°59' E 139°28'410.4
2017-Sep-14 20:30N 35°02' E 139°33'611.2
2017-Sep-14 20:00N 35°05' E 139°38'611.4
2017-Sep-14 19:30N 35°08' E 139°43'612.0
2017-Sep-14 19:00N 35°14' E 139°46'611.6
2017-Sep-14 18:30N 35°19' E 139°43'611.5
2017-Sep-14 18:00N 35°25' E 139°43'5 9.3
2017-Sep-14 17:30N 35°29' E 139°43'0 0.5
2017-Sep-14 17:00N 35°30' E 139°43'0 0.0
2017-Sep-14 16:30N 35°30' E 139°43'0 0.0
2017-Sep-14 16:00N 35°30' E 139°43'0 0.0
2017-Sep-14 15:30N 35°30' E 139°43'0 0.0
2017-Sep-14 15:00N 35°30' E 139°43'0 0.0
2017-Sep-14 14:30N 35°30' E 139°43'0 0.0
2017-Sep-14 14:00N 35°30' E 139°43'0 0.0
2017-Sep-14 13:30N 35°30' E 139°43'0 0.0
2017-Sep-14 13:00N 35°30' E 139°43'0 0.0
2017-Sep-14 12:30N 35°30' E 139°43'0 0.0
2017-Sep-14 12:00N 35°30' E 139°43'0 0.6
2017-Sep-14 11:30N 35°30' E 139°43'0 0.1
2017-Sep-14 11:00N 35°30' E 139°43'1 1.8
2017-Sep-14 10:30N 35°30' E 139°44'2 5.0
2017-Sep-14 10:00N 35°30' E 139°48'2 4.1
2017-Sep-14 09:29N 35°31' E 139°50'0 0.0
2017-Sep-14 08:59N 35°31' E 139°50'0 0.0
2017-Sep-14 08:29N 35°31' E 139°50'0 0.0
2017-Sep-14 07:59N 35°31' E 139°50'0 0.1
2017-Sep-14 07:29N 35°30' E 139°50'0 0.0
2017-Sep-14 06:59N 35°30' E 139°50'0 0.0
2017-Sep-14 06:29N 35°30' E 139°50'0 0.0
2017-Sep-14 05:59N 35°30' E 139°50'2 4.6
2017-Sep-14 05:30N 35°33' E 139°50'4 6.3
2017-Sep-14 04:55N 35°35' E 139°46'0 0.0
2017-Sep-14 04:25N 35°35' E 139°46'0 0.0
2017-Sep-14 03:55N 35°35' E 139°46'0 0.0
2017-Sep-14 03:19N 35°35' E 139°46'0 0.0
2017-Sep-14 02:55N 35°35' E 139°46'0 0.3
2017-Sep-14 02:28N 35°35' E 139°46'0 0.0
2017-Sep-14 01:58N 35°35' E 139°46'0 0.0
2017-Sep-14 01:25N 35°35' E 139°46'0 0.0
2017-Sep-14 00:58N 35°35' E 139°46'0 0.0
2017-Sep-14 00:28N 35°35' E 139°46'0 0.0
2017-Sep-13 23:58N 35°35' E 139°46'0 0.0
2017-Sep-13 23:28N 35°35' E 139°46'0 0.0
2017-Sep-13 22:58N 35°35' E 139°46'0 0.0
2017-Sep-13 22:28N 35°35' E 139°46'0 0.0
2017-Sep-13 21:58N 35°35' E 139°46'0 0.0
2017-Sep-13 21:28N 35°35' E 139°46'2 3.2
2017-Sep-13 21:00N 35°34' E 139°48'4 8.6
2017-Sep-13 20:30N 35°31' E 139°50'0 0.0
2017-Sep-13 19:58N 35°30' E 139°50'0 0.0
2017-Sep-13 19:22N 35°30' E 139°50'0 0.0
2017-Sep-13 18:58N 35°30' E 139°50'0 0.0
2017-Sep-13 18:28N 35°30' E 139°50'0 0.0
2017-Sep-13 17:58N 35°30' E 139°50'0 0.0
2017-Sep-13 17:22N 35°30' E 139°50'0 0.0
2017-Sep-13 16:58N 35°31' E 139°50'0 0.0
2017-Sep-13 16:28N 35°31' E 139°50'0 0.0
2017-Sep-13 15:58N 35°31' E 139°50'0 0.0
2017-Sep-13 15:25N 35°31' E 139°50'0 0.0
2017-Sep-13 14:58N 35°31' E 139°50'0 0.0
2017-Sep-13 14:25N 35°31' E 139°50'0 0.0
2017-Sep-13 13:55N 35°31' E 139°50'0 0.0
2017-Sep-13 12:37N 35°31' E 139°50'0 0.0
2017-Sep-13 12:28N 35°31' E 139°50'0 0.0
2017-Sep-13 11:46N 35°31' E 139°50'0 0.1
2017-Sep-13 11:25N 35°31' E 139°50'0 0.0
2017-Sep-13 10:58N 35°31' E 139°50'0 0.0
2017-Sep-13 10:28N 35°31' E 139°50'0 0.0
2017-Sep-13 09:58N 35°31' E 139°50'1 1.5
2017-Sep-13 09:30N 35°30' E 139°50'611.4
2017-Sep-13 09:00N 35°25' E 139°47'611.5
2017-Sep-13 08:30N 35°20' E 139°44'611.0
2017-Sep-13 08:00N 35°14' E 139°47'510.8
2017-Sep-13 07:30N 35°09' E 139°45'510.9
2017-Sep-13 07:00N 35°05' E 139°42'611.2
2017-Sep-13 06:30N 35°01' E 139°36'712.4
2017-Sep-13 05:59N 34°57' E 139°30'  
Track history (hours):
 
Tides and Currents Weather Stations Pressure Air Temp Water Temp Dewpoint Dewpoint Depression Visibility Wind Speed Wind Dir Waves Ship Positions

Shoei Maru No.55

Last reported at 2017-Sep-21 08:59 UTC. Time now 2017-Sep-22 00:42 UTC.
Position N 34°56' E 139°23'.

Length 72 m; draft 4.5 m.

Type: Cargo ship. MMSI: 431500583.

Date/timePositionNaut miles runAvg speedWind from/ knotsBaromVisibWave heightAir tempDewpointWater temp
2017-Sep-21 08:59N 34°56' E 139°23'5 8.7
2017-Sep-21 08:23N 34°59' E 139°28'410.4
2017-Sep-21 08:00N 35°01' E 139°32'510.9
2017-Sep-21 07:30N 35°05' E 139°38'510.9
2017-Sep-21 07:01N 35°08' E 139°43'510.7
2017-Sep-21 06:31N 35°13' E 139°46'5 9.6
2017-Sep-21 06:00N 35°17' E 139°45'5 9.9
2017-Sep-21 05:30N 35°22' E 139°42'510.2
2017-Sep-21 05:01N 35°27' E 139°43'3 5.3
2017-Sep-21 04:29N 35°30' E 139°43'0 0.0
2017-Sep-21 03:59N 35°30' E 139°43'0 0.0
2017-Sep-21 03:29N 35°30' E 139°43'0 0.0
2017-Sep-21 02:59N 35°30' E 139°43'0 0.0
2017-Sep-21 02:29N 35°30' E 139°43'0 0.0
2017-Sep-21 01:59N 35°30' E 139°43'0 0.0
2017-Sep-21 01:29N 35°30' E 139°43'0 0.0
2017-Sep-21 00:59N 35°30' E 139°43'0 0.0
2017-Sep-21 00:29N 35°30' E 139°43'0 0.0
2017-Sep-20 23:59N 35°30' E 139°43'0 0.0
2017-Sep-20 23:29N 35°30' E 139°43'0 0.1
2017-Sep-20 23:01N 35°30' E 139°43'4 8.6
2017-Sep-20 22:31N 35°30' E 139°48'2 2.7
2017-Sep-20 21:56N 35°31' E 139°50'0 0.0
2017-Sep-20 21:26N 35°31' E 139°50'0 0.0
2017-Sep-20 20:59N 35°31' E 139°50'0 0.0
2017-Sep-20 20:29N 35°31' E 139°50'0 0.1
2017-Sep-20 19:56N 35°31' E 139°50'0 0.0
2017-Sep-20 19:29N 35°31' E 139°50'0 0.0
2017-Sep-20 18:53N 35°31' E 139°50'0 0.1
2017-Sep-20 18:23N 35°31' E 139°50'0 0.0
2017-Sep-20 17:59N 35°31' E 139°50'0 0.0
2017-Sep-20 17:26N 35°31' E 139°50'0 0.1
2017-Sep-20 16:59N 35°31' E 139°50'0 0.0
2017-Sep-20 16:29N 35°31' E 139°50'0 0.0
2017-Sep-20 15:59N 35°31' E 139°50'0 0.0
2017-Sep-20 15:30N 35°31' E 139°50'0 0.0
2017-Sep-20 14:58N 35°31' E 139°50'0 0.0
2017-Sep-20 14:00N 35°31' E 139°50'0 0.0
2017-Sep-20 13:30N 35°31' E 139°50'0 0.0
2017-Sep-20 13:00N 35°31' E 139°50'0 0.0
2017-Sep-20 12:30N 35°31' E 139°50'0 0.0
2017-Sep-20 12:01N 35°31' E 139°50'0 0.0
2017-Sep-20 11:30N 35°31' E 139°50'0 0.0
2017-Sep-20 11:00N 35°31' E 139°50'0 0.0
2017-Sep-20 10:30N 35°31' E 139°50'0 0.0
2017-Sep-20 10:00N 35°31' E 139°50'0 0.0
2017-Sep-20 09:30N 35°31' E 139°50'0 0.0
2017-Sep-20 09:01N 35°31' E 139°50'0 0.1
2017-Sep-20 08:30N 35°31' E 139°50'0 0.0
2017-Sep-20 07:57N 35°31' E 139°50'0 0.0
2017-Sep-20 07:30N 35°31' E 139°50'0 0.0
2017-Sep-20 07:00N 35°31' E 139°50'0 0.0
2017-Sep-20 06:30N 35°31' E 139°50'0 0.0
2017-Sep-20 06:00N 35°31' E 139°50'0 0.0
2017-Sep-20 05:30N 35°31' E 139°50'3 5.6
2017-Sep-20 05:01N 35°33' E 139°49'3 5.3
2017-Sep-20 04:28N 35°35' E 139°46'0 0.0
2017-Sep-20 03:46N 35°35' E 139°46'0 0.0
2017-Sep-20 03:16N 35°35' E 139°46'0 0.0
2017-Sep-20 02:58N 35°35' E 139°46'0 0.0
2017-Sep-20 02:28N 35°35' E 139°46'0 0.0
2017-Sep-20 01:58N 35°35' E 139°46'0 0.0
2017-Sep-20 01:28N 35°35' E 139°46'0 0.0
2017-Sep-20 00:58N 35°35' E 139°46'0 0.0
2017-Sep-20 00:22N 35°35' E 139°46'0 0.0
2017-Sep-19 23:58N 35°35' E 139°46'0 0.0
2017-Sep-19 23:28N 35°35' E 139°46'0 0.0
2017-Sep-19 22:55N 35°35' E 139°46'0 0.1
2017-Sep-19 22:27N 35°35' E 139°46'4 8.2
2017-Sep-19 22:00N 35°33' E 139°50'5 9.8
2017-Sep-19 21:30N 35°28' E 139°48'510.2
2017-Sep-19 21:00N 35°23' E 139°46'5 9.8
2017-Sep-19 20:30N 35°19' E 139°44'510.5
2017-Sep-19 20:00N 35°14' E 139°47'611.0
2017-Sep-19 19:30N 35°09' E 139°45'611.5
2017-Sep-19 19:00N 35°04' E 139°41'611.9
2017-Sep-19 18:30N 35°00' E 139°35'712.6
2017-Sep-19 17:58N 34°57' E 139°28'  
2017-Sep-16 08:57N 34°09' E 134°57'511.3
2017-Sep-16 08:30N 34°13' E 135°00'1211.1
2017-Sep-16 07:27N 34°23' E 135°08'511.4
2017-Sep-16 07:00N 34°27' E 135°12'611.6
2017-Sep-16 06:30N 34°29' E 135°18'2 0.5
2017-Sep-16 02:07N 34°28' E 135°21'3 8.6
2017-Sep-16 01:47N 34°28' E 135°17'310.2
2017-Sep-16 01:29N 34°28' E 135°14'5 9.8
2017-Sep-16 01:00N 34°25' E 135°10'10 9.5
2017-Sep-15 23:54N 34°16' E 135°03'410.6
2017-Sep-15 23:30N 34°12' E 135°03'611.0
2017-Sep-15 22:59N 34°06' E 135°02'222 8.6
2017-Sep-14 21:16N 34°57' E 139°25'4 9.7
2017-Sep-14 20:54N 34°59' E 139°28'410.4
2017-Sep-14 20:30N 35°02' E 139°33'611.2
2017-Sep-14 20:00N 35°05' E 139°38'611.4
2017-Sep-14 19:30N 35°08' E 139°43'612.0
2017-Sep-14 19:00N 35°14' E 139°46'611.6
2017-Sep-14 18:30N 35°19' E 139°43'611.5
2017-Sep-14 18:00N 35°25' E 139°43'5 9.3
2017-Sep-14 17:30N 35°29' E 139°43'0 0.5
2017-Sep-14 17:00N 35°30' E 139°43'0 0.0
2017-Sep-14 16:30N 35°30' E 139°43'0 0.0
2017-Sep-14 16:00N 35°30' E 139°43'0 0.0
2017-Sep-14 15:30N 35°30' E 139°43'0 0.0
2017-Sep-14 15:00N 35°30' E 139°43'0 0.0
2017-Sep-14 14:30N 35°30' E 139°43'0 0.0
2017-Sep-14 14:00N 35°30' E 139°43'0 0.0
2017-Sep-14 13:30N 35°30' E 139°43'0 0.0
2017-Sep-14 13:00N 35°30' E 139°43'0 0.0
2017-Sep-14 12:30N 35°30' E 139°43'0 0.0
2017-Sep-14 12:00N 35°30' E 139°43'0 0.6
2017-Sep-14 11:30N 35°30' E 139°43'0 0.1
2017-Sep-14 11:00N 35°30' E 139°43'1 1.8
2017-Sep-14 10:30N 35°30' E 139°44'2 5.0
2017-Sep-14 10:00N 35°30' E 139°48'2 4.1
2017-Sep-14 09:29N 35°31' E 139°50'0 0.0
2017-Sep-14 08:59N 35°31' E 139°50'0 0.0
2017-Sep-14 08:29N 35°31' E 139°50'0 0.0
2017-Sep-14 07:59N 35°31' E 139°50'0 0.1
2017-Sep-14 07:29N 35°30' E 139°50'0 0.0
2017-Sep-14 06:59N 35°30' E 139°50'0 0.0
2017-Sep-14 06:29N 35°30' E 139°50'0 0.0
2017-Sep-14 05:59N 35°30' E 139°50'2 4.6
2017-Sep-14 05:30N 35°33' E 139°50'4 6.3
2017-Sep-14 04:55N 35°35' E 139°46'0 0.0
2017-Sep-14 04:25N 35°35' E 139°46'0 0.0
2017-Sep-14 03:55N 35°35' E 139°46'0 0.0
2017-Sep-14 03:19N 35°35' E 139°46'0 0.0
2017-Sep-14 02:55N 35°35' E 139°46'0 0.3
2017-Sep-14 02:28N 35°35' E 139°46'0 0.0
2017-Sep-14 01:58N 35°35' E 139°46'0 0.0
2017-Sep-14 01:25N 35°35' E 139°46'0 0.0
2017-Sep-14 00:58N 35°35' E 139°46'0 0.0
2017-Sep-14 00:28N 35°35' E 139°46'0 0.0
2017-Sep-13 23:58N 35°35' E 139°46'0 0.0
2017-Sep-13 23:28N 35°35' E 139°46'0 0.0
2017-Sep-13 22:58N 35°35' E 139°46'0 0.0
2017-Sep-13 22:28N 35°35' E 139°46'0 0.0
2017-Sep-13 21:58N 35°35' E 139°46'0 0.0
2017-Sep-13 21:28N 35°35' E 139°46'2 3.2
2017-Sep-13 21:00N 35°34' E 139°48'4 8.6
2017-Sep-13 20:30N 35°31' E 139°50'0 0.0
2017-Sep-13 19:58N 35°30' E 139°50'0 0.0
2017-Sep-13 19:22N 35°30' E 139°50'0 0.0
2017-Sep-13 18:58N 35°30' E 139°50'0 0.0
2017-Sep-13 18:28N 35°30' E 139°50'0 0.0
2017-Sep-13 17:58N 35°30' E 139°50'0 0.0
2017-Sep-13 17:22N 35°30' E 139°50'0 0.0
2017-Sep-13 16:58N 35°31' E 139°50'0 0.0
2017-Sep-13 16:28N 35°31' E 139°50'0 0.0
2017-Sep-13 15:58N 35°31' E 139°50'0 0.0
2017-Sep-13 15:25N 35°31' E 139°50'0 0.0
2017-Sep-13 14:58N 35°31' E 139°50'0 0.0
2017-Sep-13 14:25N 35°31' E 139°50'0 0.0
2017-Sep-13 13:55N 35°31' E 139°50'0 0.0
2017-Sep-13 12:37N 35°31' E 139°50'0 0.0
2017-Sep-13 12:28N 35°31' E 139°50'0 0.0
2017-Sep-13 11:46N 35°31' E 139°50'0 0.1
2017-Sep-13 11:25N 35°31' E 139°50'0 0.0
2017-Sep-13 10:58N 35°31' E 139°50'0 0.0
2017-Sep-13 10:28N 35°31' E 139°50'0 0.0
2017-Sep-13 09:58N 35°31' E 139°50'1 1.5
2017-Sep-13 09:30N 35°30' E 139°50'611.4
2017-Sep-13 09:00N 35°25' E 139°47'611.5
2017-Sep-13 08:30N 35°20' E 139°44'611.0
2017-Sep-13 08:00N 35°14' E 139°47'510.8
2017-Sep-13 07:30N 35°09' E 139°45'510.9
2017-Sep-13 07:00N 35°05' E 139°42'611.2
2017-Sep-13 06:30N 35°01' E 139°36'712.4
2017-Sep-13 05:59N 34°57' E 139°30'  

Dump ship's entire track history